Time;durP1;ratioP1;P1;durP2;ratioP2;P2;SDS_P1;SDS_P2;PMS_P1;PMS_P2;Temp;Humidity;BMP_temperature;BMP_pressure;BME280_temperature;BME280_humidity;BME280_pressure;Samples;Min_cycle;Max_cycle;Signal;HPM_P1;HPM_P2
2021/10/16 00:00:40;;;;;;;8.60;4.88;;;;;;;9.19;68.71;99156.59;5043427;28;20055;-49
2021/10/16 00:03:06;;;;;;;5.65;3.55;;;;;;;9.16;69.06;99157.53;5029682;28;20060;-50
2021/10/16 00:05:31;;;;;;;7.65;4.00;;;;;;;9.16;69.67;99160.13;5039613;28;20049;-50
2021/10/16 00:07:57;;;;;;;4.70;3.45;;;;;;;9.16;69.19;99169.69;5030944;28;20033;-47
2021/10/16 00:10:23;;;;;;;8.30;4.63;;;;;;;9.23;69.13;99158.16;5034879;28;20576;-46
2021/10/16 00:12:49;;;;;;;6.47;3.97;;;;;;;9.25;69.16;99158.97;5043173;28;20076;-49
2021/10/16 00:15:15;;;;;;;6.15;3.05;;;;;;;9.25;69.63;99156.38;5045968;28;20084;-46
2021/10/16 00:17:41;;;;;;;5.93;3.83;;;;;;;9.24;69.40;99160.72;5034945;28;20060;-48
2021/10/16 00:20:10;;;;;;;7.32;3.88;;;;;;;9.27;69.94;99158.00;5026752;28;20045;-50
2021/10/16 00:22:35;;;;;;;14.38;4.47;;;;;;;9.21;69.85;99141.84;5036131;28;20055;-53
2021/10/16 00:25:02;;;;;;;7.63;4.28;;;;;;;9.35;69.03;99155.13;5036945;28;20497;-53
2021/10/16 00:27:28;;;;;;;6.68;4.38;;;;;;;9.37;69.39;99147.28;5050855;28;20609;-49
2021/10/16 00:29:54;;;;;;;8.40;4.90;;;;;;;9.37;69.46;99160.25;5037460;28;20128;-53
2021/10/16 00:32:20;;;;;;;8.38;4.80;;;;;;;9.24;69.33;99124.41;5035885;28;20037;-48
2021/10/16 00:34:45;;;;;;;10.05;3.97;;;;;;;9.38;69.58;99152.41;5031642;28;20041;-55
2021/10/16 00:37:11;;;;;;;5.97;4.28;;;;;;;9.38;69.67;99149.81;5048561;28;20037;-51
2021/10/16 00:39:37;;;;;;;8.63;4.05;;;;;;;9.41;69.97;99146.28;5038112;28;20107;-52
2021/10/16 00:42:04;;;;;;;7.82;3.42;;;;;;;9.41;69.91;99139.34;5046847;28;20389;-52
2021/10/16 00:44:31;;;;;;;8.13;4.90;;;;;;;9.31;69.72;99128.47;5038196;28;20049;-50
2021/10/16 00:46:58;;;;;;;6.43;3.90;;;;;;;9.46;69.46;99144.34;5033688;28;20044;-49
2021/10/16 00:49:25;;;;;;;8.98;4.15;;;;;;;9.45;69.24;99150.44;5048426;28;20087;-50
2021/10/16 00:51:52;;;;;;;7.32;4.43;;;;;;;9.44;69.09;99141.78;5025880;28;20124;-54
2021/10/16 00:54:20;;;;;;;8.85;3.17;;;;;;;9.45;68.97;99140.91;5040393;28;20417;-52
2021/10/16 00:56:48;;;;;;;6.82;3.63;;;;;;;9.36;69.29;99130.88;5030405;28;20453;-48
2021/10/16 00:59:14;;;;;;;8.15;4.80;;;;;;;9.45;68.89;99147.84;5035406;28;20045;-51
2021/10/16 01:01:41;;;;;;;6.85;3.60;;;;;;;9.46;69.28;99134.81;5035564;28;20064;-51
2021/10/16 01:04:07;;;;;;;8.02;4.80;;;;;;;9.52;69.25;99138.91;5035966;28;20037;-48
2021/10/16 01:06:38;;;;;;;6.68;3.65;;;;;;;9.46;69.51;99131.38;5034690;28;20064;-49
2021/10/16 01:09:10;;;;;;;6.57;3.90;;;;;;;9.47;69.13;99120.94;5046019;28;20045;-50
2021/10/16 01:11:50;;;;;;;6.25;4.07;;;;;;;9.50;68.81;99105.25;5054391;28;20041;-50
2021/10/16 01:14:16;;;;;;;8.38;4.47;;;;;;;9.54;68.86;99108.53;5035940;28;20055;-51
2021/10/16 01:16:43;;;;;;;5.22;3.50;;;;;;;9.53;68.60;99086.09;5064717;28;20377;-52
2021/10/16 01:19:15;;;;;;;5.95;4.07;;;;;;;9.53;68.93;99097.31;5035875;28;20044;-49
2021/10/16 01:21:47;;;;;;;7.25;3.92;;;;;;;9.50;68.96;99117.38;5051347;28;20041;-48
2021/10/16 01:24:14;;;;;;;6.40;3.80;;;;;;;9.52;68.54;99131.97;5038012;28;20429;-47
2021/10/16 01:26:42;;;;;;;6.07;3.88;;;;;;;9.48;68.59;99130.38;5032198;28;20455;-52
2021/10/16 01:29:09;;;;;;;6.75;3.90;;;;;;;9.56;68.50;99143.09;5030612;28;20073;-48
2021/10/16 01:31:37;;;;;;;6.40;3.90;;;;;;;9.57;68.28;99148.22;5050659;28;20083;-48
2021/10/16 01:34:03;;;;;;;6.68;4.28;;;;;;;9.60;67.94;99140.31;5032118;28;20048;-50
2021/10/16 01:36:58;;;;;;;6.45;3.67;;;;;;;9.59;68.45;99136.00;5043676;28;20041;-47
2021/10/16 01:39:29;;;;;;;8.70;4.07;;;;;;;9.57;68.59;99127.47;5030035;28;20076;-52
2021/10/16 01:41:56;;;;;;;5.47;3.35;;;;;;;9.59;68.32;99129.97;5018329;28;20067;-49
2021/10/16 01:44:22;;;;;;;5.22;4.07;;;;;;;9.48;68.12;99116.56;5037474;28;20072;-51
2021/10/16 01:46:47;;;;;;;11.80;4.10;;;;;;;9.57;68.05;99135.25;5047266;28;20124;-50
2021/10/16 01:49:20;;;;;;;5.45;3.47;;;;;;;9.54;68.24;99130.16;5050592;28;20124;-47
2021/10/16 01:51:49;;;;;;;5.00;3.60;;;;;;;9.58;68.13;99126.53;5017672;28;20459;-46
2021/10/16 01:54:16;;;;;;;7.30;3.97;;;;;;;9.61;67.96;99141.16;5039874;28;20038;-48
2021/10/16 01:56:52;;;;;;;6.70;3.78;;;;;;;9.54;68.36;99114.59;5046373;28;20044;-48
2021/10/16 01:59:24;;;;;;;8.25;4.38;;;;;;;9.58;67.96;99120.50;5043182;28;20048;-51
2021/10/16 02:02:08;;;;;;;;;;;;;;;9.57;67.47;99119.69;5051938;28;20040;-52
2021/10/16 02:04:41;;;;;;;7.30;4.18;;;;;;;9.58;67.64;99116.16;5035048;28;19970;-49
2021/10/16 02:07:07;;;;;;;4.30;3.00;;;;;;;9.57;68.28;99109.28;5029454;28;20063;-50
2021/10/16 02:09:34;;;;;;;7.15;3.70;;;;;;;9.55;68.06;99107.66;5032615;28;20136;-50
2021/10/16 02:12:00;;;;;;;7.43;4.25;;;;;;;9.49;67.80;99087.97;5051403;28;20182;-50
2021/10/16 02:14:28;;;;;;;6.20;3.65;;;;;;;9.58;67.51;99092.78;5037953;28;20510;-48
2021/10/16 02:16:59;;;;;;;7.95;4.63;;;;;;;9.58;67.92;99123.94;5027229;28;20046;-52
2021/10/16 02:19:25;;;;;;;6.35;3.92;;;;;;;9.58;67.94;99103.16;5015527;28;20048;-49
2021/10/16 02:21:52;;;;;;;6.82;3.83;;;;;;;9.61;67.44;99103.06;5049323;28;20082;-48
2021/10/16 02:24:19;;;;;;;8.00;3.97;;;;;;;9.64;67.40;99096.91;5037911;28;20044;-50
2021/10/16 02:26:45;;;;;;;5.70;4.07;;;;;;;9.68;67.66;99091.53;5048546;28;20049;-48
2021/10/16 02:29:17;;;;;;;7.10;4.65;;;;;;;9.72;67.17;99092.25;5043209;28;20056;-48
2021/10/16 02:31:49;;;;;;;6.03;4.05;;;;;;;9.72;67.28;99095.69;5033312;28;20112;-48
2021/10/16 02:34:15;;;;;;;8.23;4.15;;;;;;;9.69;67.10;99098.41;5048198;28;20151;-48
2021/10/16 02:36:49;;;;;;;10.13;4.53;;;;;;;9.65;67.25;99081.28;5048748;28;20051;-53
2021/10/16 02:39:15;;;;;;;7.80;4.45;;;;;;;9.70;67.58;99084.53;5046931;28;20045;-52
2021/10/16 02:41:42;;;;;;;7.93;4.10;;;;;;;9.73;67.22;99088.75;5019790;28;20117;-51
2021/10/16 02:44:08;;;;;;;11.07;4.20;;;;;;;9.71;67.20;99087.97;5042024;28;20140;-51
2021/10/16 02:46:39;;;;;;;8.55;4.05;;;;;;;9.76;67.29;99086.03;5046545;28;20045;-50
2021/10/16 02:49:05;;;;;;;6.00;4.20;;;;;;;9.75;67.25;99085.19;5030160;28;20068;-51
2021/10/16 02:51:30;;;;;;;7.45;4.40;;;;;;;9.79;66.96;99104.06;5015859;28;20057;-50
2021/10/16 02:53:57;;;;;;;10.52;4.70;;;;;;;9.78;67.16;99079.88;5033730;28;20447;-53
2021/10/16 02:56:24;;;;;;;7.63;4.18;;;;;;;9.79;66.83;99084.16;5032980;28;20060;-51
2021/10/16 02:58:50;;;;;;;5.82;3.45;;;;;;;9.78;67.04;99086.81;5041137;28;20064;-49
2021/10/16 03:01:16;;;;;;;11.35;4.15;;;;;;;9.78;67.08;99084.22;4996793;28;20509;-53
2021/10/16 03:03:43;;;;;;;9.63;3.83;;;;;;;9.67;67.35;99073.44;5045723;28;20048;-53
2021/10/16 03:06:09;;;;;;;6.10;3.33;;;;;;;9.73;67.12;99086.16;5050679;28;20040;-48
2021/10/16 03:08:36;;;;;;;6.70;4.35;;;;;;;9.75;67.06;99090.38;5032705;28;20075;-52
2021/10/16 03:11:04;;;;;;;5.78;4.10;;;;;;;9.79;67.23;99094.53;5066265;28;20508;-50
2021/10/16 03:13:35;;;;;;;7.28;4.40;;;;;;;9.77;67.72;99075.59;5049320;28;20049;-53
2021/10/16 03:16:04;;;;;;;8.15;4.90;;;;;;;9.80;67.31;99090.19;5047056;28;20512;-48
2021/10/16 03:18:29;;;;;;;8.52;5.18;;;;;;;9.82;67.10;99080.59;5049324;28;20055;-49
2021/10/16 03:20:57;;;;;;;9.48;4.38;;;;;;;9.88;67.38;99082.09;5049166;28;20052;-51
2021/10/16 03:23:25;;;;;;;7.88;5.20;;;;;;;9.90;66.92;99085.44;5036663;28;20072;-47
2021/10/16 03:25:51;;;;;;;9.10;4.38;;;;;;;9.89;66.85;99087.19;5009368;28;20241;-48
2021/10/16 03:28:17;;;;;;;5.80;3.40;;;;;;;9.83;66.91;99077.09;5032976;28;20041;-47
2021/10/16 03:30:43;;;;;;;8.38;3.95;;;;;;;9.84;67.45;99081.34;4979404;28;20535;-48
2021/10/16 03:33:09;;;;;;;7.50;5.00;;;;;;;9.89;66.50;99076.81;5027834;28;20156;-48
2021/10/16 03:35:36;;;;;;;7.38;3.95;;;;;;;9.76;67.01;99067.88;5025342;28;20505;-51
2021/10/16 03:38:02;;;;;;;6.88;3.67;;;;;;;9.83;67.40;99078.84;5030294;28;20049;-50
2021/10/16 03:40:27;;;;;;;7.55;4.82;;;;;;;9.88;66.98;99084.69;5040704;28;20176;-47
2021/10/16 03:42:53;;;;;;;10.68;4.50;;;;;;;9.85;67.13;99084.81;5035486;28;20037;-50
2021/10/16 03:45:22;;;;;;;11.88;4.60;;;;;;;9.86;67.20;99078.72;5016811;28;20506;-51
2021/10/16 03:47:49;;;;;;;7.53;4.38;;;;;;;9.83;66.78;99081.44;5029219;28;20052;-50
2021/10/16 03:50:18;;;;;;;9.98;4.28;;;;;;;9.84;67.03;99090.94;5029635;28;20140;-53
2021/10/16 03:52:44;;;;;;;5.45;3.45;;;;;;;9.84;67.17;99078.75;5021973;28;20107;-47
2021/10/16 03:55:10;;;;;;;5.43;3.53;;;;;;;9.87;66.59;99094.22;5015688;28;20075;-51
2021/10/16 03:57:36;;;;;;;7.25;3.80;;;;;;;9.80;66.85;99074.59;5031597;28;20128;-51
2021/10/16 04:00:04;;;;;;;6.13;3.45;;;;;;;9.87;67.30;99077.81;5028621;28;20068;-53
2021/10/16 04:02:40;;;;;;;8.10;4.55;;;;;;;9.78;67.56;99073.84;5044195;28;20041;-49
2021/10/16 04:05:07;;;;;;;5.68;3.55;;;;;;;9.83;66.84;99079.69;5044371;28;20517;-51
2021/10/16 04:07:35;;;;;;;6.65;3.55;;;;;;;9.81;67.36;99085.84;5039204;28;20048;-51
2021/10/16 04:10:00;;;;;;;6.55;4.43;;;;;;;9.86;67.21;99083.91;5055925;28;20489;-52
2021/10/16 04:12:28;;;;;;;6.45;3.83;;;;;;;9.85;66.66;99075.25;5019806;28;20045;-51
2021/10/16 04:14:54;;;;;;;9.98;5.43;;;;;;;9.79;66.84;99075.50;5030600;28;20424;-51
2021/10/16 04:17:26;;;;;;;6.97;3.92;;;;;;;9.84;66.42;99098.72;5037032;28;20053;-48
2021/10/16 04:19:51;;;;;;;7.90;4.32;;;;;;;9.82;67.45;99078.00;5012049;28;20041;-50
2021/10/16 04:22:18;;;;;;;7.07;5.10;;;;;;;9.87;66.74;99078.66;5040551;28;20052;-50
2021/10/16 04:24:44;;;;;;;9.93;5.28;;;;;;;9.83;66.86;99071.91;5028479;28;20046;-49
2021/10/16 04:27:11;;;;;;;11.35;5.57;;;;;;;9.89;67.02;99079.41;5034305;28;20045;-52
2021/10/16 04:29:41;;;;;;;10.70;4.93;;;;;;;9.93;66.71;99069.78;5043585;28;20539;-47
2021/10/16 04:32:09;;;;;;;8.52;4.93;;;;;;;9.92;66.87;99068.06;5032486;28;20045;-51
2021/10/16 04:34:35;;;;;;;7.95;3.78;;;;;;;9.92;66.74;99071.53;5063382;28;20044;-48
2021/10/16 04:37:01;;;;;;;7.93;4.32;;;;;;;9.89;66.80;99074.22;5013021;28;20041;-49
2021/10/16 04:39:28;;;;;;;7.68;4.68;;;;;;;9.89;66.91;99071.63;5041609;28;20051;-50
2021/10/16 04:41:54;;;;;;;7.32;4.82;;;;;;;9.91;66.42;99076.75;5029287;28;20132;-52
2021/10/16 04:44:20;;;;;;;5.10;3.47;;;;;;;9.93;66.32;99072.38;5022817;28;20042;-49
2021/10/16 04:46:47;;;;;;;7.30;4.38;;;;;;;9.97;66.31;99066.13;5024162;28;20424;-51
2021/10/16 04:49:13;;;;;;;12.38;4.47;;;;;;;9.95;65.92;99054.94;5045519;28;20046;-51
2021/10/16 04:51:41;;;;;;;9.13;4.90;;;;;;;9.98;65.81;99070.41;5028296;28;20049;-47
2021/10/16 04:54:10;;;;;;;8.70;4.70;;;;;;;10.00;66.28;99061.66;5028368;28;20536;-50
2021/10/16 04:56:36;;;;;;;7.10;4.28;;;;;;;10.02;66.03;99066.78;5048111;28;20049;-52
2021/10/16 04:59:04;;;;;;;6.60;3.88;;;;;;;10.05;65.59;99057.09;5049812;28;20512;-53
2021/10/16 05:01:31;;;;;;;9.25;5.10;;;;;;;10.10;66.09;99062.13;5034982;28;20049;-51
2021/10/16 05:03:57;;;;;;;7.65;4.68;;;;;;;10.13;65.18;99046.41;5046354;28;20053;-50
2021/10/16 05:06:24;;;;;;;9.30;4.63;;;;;;;10.06;65.07;99027.63;5051264;28;20272;-53
2021/10/16 05:08:52;;;;;;;10.43;5.15;;;;;;;10.14;65.41;99046.34;5025125;28;20039;-53
2021/10/16 05:11:18;;;;;;;5.43;3.75;;;;;;;10.03;65.13;99029.53;5034788;28;20042;-54
2021/10/16 05:13:43;;;;;;;7.28;4.20;;;;;;;10.13;64.91;99036.84;5049682;28;20425;-48
2021/10/16 05:16:11;;;;;;;4.95;2.90;;;;;;;10.15;64.53;99036.81;5034021;28;20051;-56
2021/10/16 05:18:37;;;;;;;9.05;4.95;;;;;;;10.17;64.84;99041.03;5041442;28;20036;-53
2021/10/16 05:21:04;;;;;;;8.10;4.28;;;;;;;10.23;64.19;99037.34;5031449;28;20049;-54
2021/10/16 05:23:30;;;;;;;12.00;4.60;;;;;;;10.18;64.33;99044.47;5014196;28;20041;-56
2021/10/16 05:25:56;;;;;;;11.15;4.75;;;;;;;10.10;64.57;99033.56;5034751;28;20125;-56
2021/10/16 05:28:23;;;;;;;7.32;4.95;;;;;;;10.02;64.40;99023.47;5031187;28;20045;-56
2021/10/16 05:30:52;;;;;;;8.68;4.65;;;;;;;10.13;64.57;99042.06;5031243;28;20048;-52
2021/10/16 05:33:18;;;;;;;13.43;5.00;;;;;;;10.18;64.34;99045.31;5030427;28;20050;-56
2021/10/16 05:35:45;;;;;;;8.63;4.63;;;;;;;10.25;64.21;99043.31;5047671;28;20048;-56
2021/10/16 05:38:18;;;;;;;10.68;4.22;;;;;;;10.23;64.26;99041.69;5014286;28;20049;-56
2021/10/16 05:40:44;;;;;;;10.55;3.85;;;;;;;10.16;64.72;99030.69;5035555;28;20040;-54
2021/10/16 05:43:10;;;;;;;10.55;4.75;;;;;;;10.17;64.37;99041.03;5067256;28;20051;-57
2021/10/16 05:45:37;;;;;;;10.85;4.75;;;;;;;10.20;64.24;99022.72;5033351;28;20041;-55
2021/10/16 05:48:03;;;;;;;7.43;4.28;;;;;;;10.20;63.71;99027.09;5027370;28;20532;-55
2021/10/16 05:50:31;;;;;;;7.93;4.72;;;;;;;10.28;64.01;99029.34;5036968;28;20049;-55
2021/10/16 05:52:59;;;;;;;7.32;4.82;;;;;;;10.24;63.70;99025.19;5049943;28;20045;-51
2021/10/16 05:55:25;;;;;;;7.80;4.72;;;;;;;10.31;63.68;99019.66;5035698;28;20044;-48
2021/10/16 05:57:50;;;;;;;10.40;4.65;;;;;;;10.30;64.23;99011.94;5045540;28;20045;-50
2021/10/16 06:00:17;;;;;;;9.63;4.70;;;;;;;10.33;63.97;99019.59;5040951;28;20132;-53
2021/10/16 06:02:43;;;;;;;12.02;5.05;;;;;;;10.35;63.77;99009.97;5028942;28;20497;-50
2021/10/16 06:05:11;;;;;;;8.27;4.95;;;;;;;10.36;63.51;99009.06;5047029;28;20049;-55
2021/10/16 06:07:36;;;;;;;7.93;4.13;;;;;;;10.33;63.41;99011.78;5031773;28;20536;-48
2021/10/16 06:10:03;;;;;;;9.77;4.75;;;;;;;10.29;63.25;99002.44;5030541;28;20049;-45
2021/10/16 06:12:29;;;;;;;10.65;5.00;;;;;;;10.39;63.50;98995.94;5027680;28;20052;-51
2021/10/16 06:14:55;;;;;;;11.63;4.57;;;;;;;10.42;63.34;98998.38;5042913;28;20045;-52
2021/10/16 06:17:28;;;;;;;11.95;4.82;;;;;;;10.38;63.71;99002.88;5023576;28;20139;-54
2021/10/16 06:19:54;;;;;;;7.93;4.05;;;;;;;10.40;63.17;98998.47;5020925;28;20148;-49
2021/10/16 06:22:20;;;;;;;16.48;5.35;;;;;;;10.41;63.16;99002.78;5025885;28;20595;-52
2021/10/16 06:24:46;;;;;;;8.95;4.78;;;;;;;10.43;63.18;98997.47;5028361;28;20124;-51
2021/10/16 06:27:11;;;;;;;10.23;4.70;;;;;;;10.36;62.91;98993.50;5042016;28;20045;-51
2021/10/16 06:29:38;;;;;;;13.50;6.05;;;;;;;10.35;63.15;98979.66;5029950;28;20048;-51
2021/10/16 06:32:04;;;;;;;10.63;5.00;;;;;;;10.40;62.91;98982.03;5026842;28;20049;-54
2021/10/16 06:34:31;;;;;;;9.95;5.22;;;;;;;10.55;63.12;98995.19;5012133;28;20033;-54
2021/10/16 06:36:57;;;;;;;6.13;3.90;;;;;;;10.61;61.99;99000.13;5028020;28;20054;-49
2021/10/16 06:39:22;;;;;;;6.88;4.32;;;;;;;10.46;62.81;98984.38;5025511;28;20554;-50
2021/10/16 06:41:56;;;;;;;7.70;5.10;;;;;;;10.54;62.55;99006.50;5044214;28;20060;-53
2021/10/16 06:44:39;;;;;;;9.18;4.78;;;;;;;10.60;62.63;99007.97;5039606;28;20049;-49
2021/10/16 06:47:25;;;;;;;8.75;4.13;;;;;;;10.54;62.07;98996.09;5043543;28;20053;-51
2021/10/16 06:49:54;;;;;;;7.53;4.20;;;;;;;10.50;61.97;98978.13;5027933;28;20229;-48
2021/10/16 06:52:19;;;;;;;10.68;5.18;;;;;;;10.66;62.17;99007.69;5027203;28;20046;-54
2021/10/16 06:54:45;;;;;;;5.00;2.65;;;;;;;10.71;61.98;99000.53;5025000;28;20044;-51
2021/10/16 06:57:13;;;;;;;9.73;5.00;;;;;;;10.61;61.80;98988.88;5027959;28;20057;-54
2021/10/16 06:59:40;;;;;;;9.90;5.10;;;;;;;10.71;61.79;98995.34;5058502;28;20037;-54
2021/10/16 07:02:08;;;;;;;9.45;4.97;;;;;;;10.69;61.88;99004.09;5028145;28;20067;-52
2021/10/16 07:04:45;;;;;;;13.50;4.70;;;;;;;10.65;61.43;98999.97;5025536;28;20142;-53
2021/10/16 07:07:11;;;;;;;10.15;4.65;;;;;;;10.63;61.89;99013.00;5045166;28;20041;-52
2021/10/16 07:09:44;;;;;;;16.75;4.72;;;;;;;10.58;61.61;98983.78;5044199;28;20045;-52
2021/10/16 07:12:10;;;;;;;9.05;4.60;;;;;;;10.58;61.71;98991.59;5026697;28;20090;-49
2021/10/16 07:14:36;;;;;;;7.75;4.35;;;;;;;10.59;61.95;98996.72;5026110;28;20500;-53
2021/10/16 07:17:06;;;;;;;5.85;4.15;;;;;;;10.57;62.02;98982.13;5027770;28;20045;-55
2021/10/16 07:19:32;;;;;;;10.52;4.70;;;;;;;10.60;61.82;98990.63;5028128;28;20041;-54
2021/10/16 07:21:59;;;;;;;7.88;4.43;;;;;;;10.63;61.41;98977.47;5029039;28;20040;-55
2021/10/16 07:24:24;;;;;;;12.93;4.10;;;;;;;10.69;61.47;98991.09;5041816;28;22014;-46
2021/10/16 07:26:53;;;;;;;6.05;3.83;;;;;;;10.69;61.16;98978.09;5043541;28;20154;-44
2021/10/16 07:29:22;;;;;;;9.23;4.15;;;;;;;10.60;61.20;98975.03;5050339;28;20530;-46
2021/10/16 07:31:52;;;;;;;6.80;4.35;;;;;;;10.71;61.28;98974.53;5036126;28;20528;-43
2021/10/16 07:34:18;;;;;;;9.65;4.72;;;;;;;10.66;61.23;98973.06;5014631;28;20037;-43
2021/10/16 07:36:45;;;;;;;6.80;4.00;;;;;;;10.76;60.76;98982.13;5043152;28;20502;-43
2021/10/16 07:39:11;;;;;;;7.18;3.92;;;;;;;10.79;60.97;98979.38;5028916;28;20124;-44
2021/10/16 07:41:37;;;;;;;10.70;4.28;;;;;;;10.82;60.66;98974.03;5025500;28;20078;-48
2021/10/16 07:44:05;;;;;;;7.93;3.90;;;;;;;10.74;60.32;98976.13;5024569;28;20509;-44
2021/10/16 07:46:31;;;;;;;13.50;4.75;;;;;;;10.84;60.36;98977.38;5027229;28;20072;-45
2021/10/16 07:48:57;;;;;;;6.70;4.35;;;;;;;10.96;59.86;99000.22;5028137;28;20044;-44
2021/10/16 07:51:23;;;;;;;9.00;4.22;;;;;;;10.99;59.80;98980.13;5028314;28;20065;-45
2021/10/16 07:53:49;;;;;;;7.30;3.63;;;;;;;11.03;59.01;98960.03;5027703;28;20595;-45
2021/10/16 07:56:15;;;;;;;8.50;3.97;;;;;;;11.00;59.38;98961.00;5011483;28;20037;-44
2021/10/16 07:58:41;;;;;;;7.80;3.92;;;;;;;11.13;58.44;98963.03;5029678;28;20489;-44
2021/10/16 08:01:08;;;;;;;10.82;4.63;;;;;;;11.17;58.72;98964.56;5029999;28;20041;-46
2021/10/16 08:03:34;;;;;;;5.40;3.25;;;;;;;11.16;58.57;98986.28;5030703;28;20029;-45
2021/10/16 08:06:00;;;;;;;8.45;3.85;;;;;;;11.20;58.27;98985.25;5030784;28;20038;-44
2021/10/16 08:08:27;;;;;;;7.15;3.70;;;;;;;11.26;58.12;98958.91;5025085;28;20609;-47
2021/10/16 08:10:56;;;;;;;11.45;4.90;;;;;;;11.36;57.28;98954.94;5015850;28;20524;-44
2021/10/16 08:13:22;;;;;;;7.03;4.47;;;;;;;11.51;57.42;98948.16;5014919;28;20495;-45
2021/10/16 08:15:48;;;;;;;6.88;4.55;;;;;;;11.60;56.98;98958.09;4991895;28;20563;-45
2021/10/16 08:18:14;;;;;;;9.55;5.03;;;;;;;11.76;56.75;98943.41;5029758;28;20053;-46
2021/10/16 08:20:40;;;;;;;8.75;4.25;;;;;;;12.01;55.93;98962.06;5029473;28;20042;-45
2021/10/16 08:23:07;;;;;;;7.65;4.20;;;;;;;11.99;55.50;98973.47;5028977;28;20045;-45
2021/10/16 08:25:33;;;;;;;9.73;4.65;;;;;;;12.03;55.40;98969.81;5026919;28;20033;-45
2021/10/16 08:28:01;;;;;;;9.55;3.00;;;;;;;11.98;55.25;98966.59;5041883;28;20063;-47
2021/10/16 08:30:27;;;;;;;8.95;3.58;;;;;;;11.87;55.17;98975.81;5032476;28;20041;-45
2021/10/16 08:32:52;;;;;;;13.77;3.70;;;;;;;11.87;55.17;98959.34;5036511;28;20060;-47
2021/10/16 08:35:18;;;;;;;6.82;3.13;;;;;;;11.89;54.78;98962.69;5021927;28;20041;-44
2021/10/16 08:37:44;;;;;;;9.75;4.07;;;;;;;11.86;54.61;98983.69;5029454;28;20073;-45
2021/10/16 08:40:10;;;;;;;9.15;3.80;;;;;;;11.92;54.75;98980.78;5047586;28;20041;-44
2021/10/16 08:42:36;;;;;;;8.88;4.40;;;;;;;11.89;54.63;98973.97;5036917;28;20071;-44
2021/10/16 08:45:03;;;;;;;6.18;3.25;;;;;;;11.96;54.51;98991.88;5040580;28;20065;-44
2021/10/16 08:47:32;;;;;;;8.07;4.15;;;;;;;12.01;54.04;98980.31;5027139;28;20406;-43
2021/10/16 08:49:58;;;;;;;;;;;;;;;12.09;53.99;98972.94;5047558;28;20052;-44
2021/10/16 08:52:24;;;;;;;9.20;3.65;;;;;;;12.08;53.05;98973.88;5033759;28;19946;-46
2021/10/16 08:54:49;;;;;;;10.23;4.47;;;;;;;12.12;53.24;98985.81;5040819;28;20051;-44
2021/10/16 08:57:15;;;;;;;13.50;3.15;;;;;;;12.15;52.27;98966.56;5037001;28;20041;-43
2021/10/16 08:59:41;;;;;;;9.70;3.53;;;;;;;12.11;52.27;98986.72;5048776;28;20049;-44
2021/10/16 09:02:08;;;;;;;13.45;5.00;;;;;;;12.10;52.16;98963.34;5045117;28;20504;-47
2021/10/16 09:04:36;;;;;;;5.97;3.53;;;;;;;12.18;51.67;98962.03;5037993;28;20405;-44
2021/10/16 09:07:23;;;;;;;7.80;3.95;;;;;;;12.11;51.45;98955.47;5031587;28;20210;-47
2021/10/16 09:09:49;;;;;;;6.88;3.85;;;;;;;12.01;51.15;98962.06;5028457;28;20048;-46
2021/10/16 09:12:15;;;;;;;4.43;3.28;;;;;;;12.09;51.16;98962.50;5026399;28;20038;-47
2021/10/16 09:14:46;;;;;;;5.35;3.28;;;;;;;12.13;50.71;98958.84;5029407;28;20037;-45
2021/10/16 09:17:13;;;;;;;7.10;3.75;;;;;;;12.22;50.97;98970.53;5022737;28;20068;-43
2021/10/16 09:19:39;;;;;;;5.20;2.90;;;;;;;12.23;50.36;98959.19;5019996;28;20033;-47
2021/10/16 09:22:23;;;;;;;6.93;3.55;;;;;;;12.30;50.43;98963.97;5025494;28;20064;-46
2021/10/16 09:24:50;;;;;;;6.35;3.63;;;;;;;12.33;50.06;98968.22;5027630;28;20127;-46
2021/10/16 09:27:22;;;;;;;5.40;3.40;;;;;;;12.30;50.04;98965.75;5029920;28;20068;-46
2021/10/16 09:29:50;;;;;;;5.85;3.13;;;;;;;12.20;49.85;98957.56;5015503;28;20053;-45
2021/10/16 09:32:18;;;;;;;9.82;4.40;;;;;;;12.25;49.90;98950.34;5033485;28;20076;-44
2021/10/16 09:34:46;;;;;;;9.63;4.70;;;;;;;12.41;49.82;98949.53;5024606;28;20037;-46
2021/10/16 09:37:21;;;;;;;7.50;3.35;;;;;;;12.42;49.32;98940.81;5030969;28;20044;-43
2021/10/16 09:39:47;;;;;;;6.72;4.03;;;;;;;12.36;49.50;98955.00;5043491;28;20059;-45
2021/10/16 09:42:14;;;;;;;5.80;3.55;;;;;;;12.41;48.56;98953.00;5036518;28;20038;-44
2021/10/16 09:44:42;;;;;;;9.35;3.88;;;;;;;12.37;48.62;98914.13;5033063;28;20041;-47
2021/10/16 09:47:17;;;;;;;6.13;3.72;;;;;;;12.46;48.43;98924.06;5031835;28;20040;-45
2021/10/16 09:49:53;;;;;;;8.73;4.43;;;;;;;12.57;47.93;98946.03;5030258;28;20633;-47
2021/10/16 09:52:20;;;;;;;6.32;3.40;;;;;;;12.68;47.39;98935.00;5029116;28;20041;-46
2021/10/16 09:54:49;;;;;;;6.82;3.60;;;;;;;12.64;47.75;98923.06;5031734;28;20041;-47
2021/10/16 09:57:19;;;;;;;8.38;3.78;;;;;;;12.65;47.48;98929.97;5031746;28;20124;-45
2021/10/16 09:59:44;;;;;;;7.40;3.90;;;;;;;12.61;47.81;98931.09;5030046;28;20034;-48
2021/10/16 10:02:11;;;;;;;5.95;3.70;;;;;;;12.65;47.39;98930.81;5031943;28;20045;-46
2021/10/16 10:04:40;;;;;;;5.80;3.55;;;;;;;12.60;47.20;98925.03;5030593;28;20072;-47
2021/10/16 10:07:06;;;;;;;6.28;2.92;;;;;;;12.46;47.20;98942.31;5030649;28;20080;-49
2021/10/16 10:09:33;;;;;;;7.70;4.30;;;;;;;12.44;47.35;98941.56;5019767;28;20046;-50
2021/10/16 10:12:00;;;;;;;7.65;3.67;;;;;;;12.31;47.25;98923.13;5014599;28;20040;-48
2021/10/16 10:14:26;;;;;;;8.85;3.45;;;;;;;12.38;47.39;98927.09;5019444;28;20049;-46
2021/10/16 10:17:04;;;;;;;9.15;4.65;;;;;;;12.38;47.47;98932.31;5028291;28;20110;-46
2021/10/16 10:19:31;;;;;;;5.43;3.67;;;;;;;12.37;47.18;98935.84;5005582;28;20053;-48
2021/10/16 10:21:58;;;;;;;6.25;4.10;;;;;;;12.44;47.11;98934.59;5026564;28;20052;-46
2021/10/16 10:24:37;;;;;;;7.32;4.35;;;;;;;12.51;46.55;98937.72;5009725;28;20052;-50
2021/10/16 10:27:07;;;;;;;13.00;4.60;;;;;;;12.53;46.78;98951.50;5030527;28;20044;-50
2021/10/16 10:29:36;;;;;;;8.98;4.68;;;;;;;12.49;46.61;98919.53;5023198;28;20612;-46
2021/10/16 10:32:16;;;;;;;6.63;3.88;;;;;;;12.61;46.79;98928.47;5015094;28;20053;-43
2021/10/16 10:34:54;;;;;;;7.35;3.65;;;;;;;12.51;46.25;98912.47;5014515;28;20038;-45
2021/10/16 10:37:19;;;;;;;6.95;4.18;;;;;;;12.49;46.52;98914.34;5018741;28;20623;-46
2021/10/16 10:39:51;;;;;;;8.93;4.93;;;;;;;12.54;46.69;98921.91;5012227;28;20084;-45
2021/10/16 10:42:17;;;;;;;6.43;3.80;;;;;;;12.52;46.44;98936.78;5016673;28;20041;-48
2021/10/16 10:44:54;;;;;;;8.35;4.13;;;;;;;12.35;46.57;98919.47;5010039;28;20050;-46
2021/10/16 10:47:30;;;;;;;11.40;5.03;;;;;;;12.40;46.92;98930.47;5027517;28;20156;-47
2021/10/16 10:50:19;;;;;;;7.55;4.35;;;;;;;12.38;46.87;98926.25;5024878;28;20069;-44
2021/10/16 10:53:02;;;;;;;8.98;3.50;;;;;;;12.30;46.59;98924.03;5014868;28;20045;-51
2021/10/16 10:55:28;;;;;;;6.55;3.97;;;;;;;12.21;47.20;98928.00;5013690;28;20482;-45
2021/10/16 10:57:59;;;;;;;8.90;4.70;;;;;;;12.19;47.12;98965.50;5020306;28;20129;-46
2021/10/16 11:00:45;;;;;;;7.70;4.40;;;;;;;12.14;47.37;98946.66;5017096;28;20053;-45
2021/10/16 11:03:30;;;;;;;6.35;3.80;;;;;;;12.12;47.50;98948.50;5026128;28;20049;-45
2021/10/16 11:06:15;;;;;;;5.60;3.65;;;;;;;12.02;47.22;98949.88;5030461;28;20042;-46
2021/10/16 11:08:40;;;;;;;7.38;3.72;;;;;;;12.03;47.28;98949.81;5024260;28;20036;-47
2021/10/16 11:11:06;;;;;;;7.00;3.63;;;;;;;12.08;47.46;98949.56;5018895;28;20063;-48
2021/10/16 11:13:34;;;;;;;14.40;5.70;;;;;;;12.09;47.22;98944.25;5013267;28;20049;-46
2021/10/16 11:16:02;;;;;;;10.65;5.18;;;;;;;12.14;47.21;98941.44;5016575;28;20540;-45
2021/10/16 11:18:28;;;;;;;7.78;3.80;;;;;;;12.10;47.32;98960.75;5019846;28;20052;-47
2021/10/16 11:21:04;;;;;;;9.80;5.18;;;;;;;12.11;47.60;98945.03;5017434;28;20038;-46
2021/10/16 11:23:29;;;;;;;10.40;4.40;;;;;;;12.13;47.44;98940.59;5011402;28;20041;-46
2021/10/16 11:26:03;;;;;;;9.18;4.90;;;;;;;12.17;47.32;98942.13;5022282;28;20037;-44
2021/10/16 11:28:31;;;;;;;8.65;5.03;;;;;;;12.16;47.18;98947.41;5010815;28;20539;-46
2021/10/16 11:30:57;;;;;;;8.13;4.32;;;;;;;12.11;47.22;98942.44;5003399;28;20122;-46
2021/10/16 11:33:28;;;;;;;7.15;4.40;;;;;;;12.05;47.47;98939.28;5012845;28;20120;-46
2021/10/16 11:35:56;;;;;;;11.30;4.57;;;;;;;12.05;47.16;98955.78;5022971;28;20042;-46
2021/10/16 11:38:28;;;;;;;6.47;3.90;;;;;;;12.13;47.96;98973.63;5002270;28;20037;-48
2021/10/16 11:40:55;;;;;;;8.23;4.07;;;;;;;12.09;47.64;98941.66;5035027;28;20052;-45